Time;durP1;ratioP1;P1;durP2;ratioP2;P2;SDS_P1;SDS_P2;PMS_P1;PMS_P2;Temp;Humidity;BMP_temperature;BMP_pressure;BME280_temperature;BME280_humidity;BME280_pressure;Samples;Min_cycle;Max_cycle;Signal;HPM_P1;HPM_P2
2022/08/25 00:00:19;;;;;;;12.40;9.15;;;21.40;99.90;;;;;;4900470;29;20048;-78
2022/08/25 00:02:44;;;;;;;11.85;9.65;;;21.40;99.90;;;;;;4932251;29;20052;-77
2022/08/25 00:05:10;;;;;;;12.68;9.50;;;21.30;99.90;;;;;;4900768;29;20051;-77
2022/08/25 00:07:36;;;;;;;10.82;9.05;;;21.30;99.90;;;;;;4900392;29;20538;-77
2022/08/25 00:10:04;;;;;;;13.63;10.13;;;21.30;99.90;;;;;;4919018;29;20099;-77
2022/08/25 00:12:29;;;;;;;14.73;10.23;;;21.20;99.90;;;;;;4906838;29;20104;-77
2022/08/25 00:14:55;;;;;;;12.43;9.40;;;21.20;99.90;;;;;;4923751;29;20396;-77
2022/08/25 00:17:20;;;;;;;10.30;8.77;;;21.10;99.90;;;;;;4923748;29;20459;-77
2022/08/25 00:19:46;;;;;;;10.90;8.55;;;21.10;99.90;;;;;;4906667;29;20044;-78
2022/08/25 00:22:12;;;;;;;10.48;8.60;;;21.10;99.90;;;;;;4923582;29;20048;-77
2022/08/25 00:24:38;;;;;;;11.23;8.38;;;21.00;99.90;;;;;;4923544;29;20052;-77
2022/08/25 00:27:04;;;;;;;9.85;7.82;;;20.90;99.90;;;;;;4906498;29;20048;-77
2022/08/25 00:29:31;;;;;;;13.02;8.55;;;20.90;99.90;;;;;;4923493;29;20044;-78
2022/08/25 00:31:58;;;;;;;9.55;8.15;;;20.90;99.90;;;;;;4906596;29;20044;-77
2022/08/25 00:34:32;;;;;;;9.88;7.47;;;20.90;99.90;;;;;;4923603;29;20056;-77
2022/08/25 00:36:58;;;;;;;8.57;7.60;;;20.80;99.90;;;;;;4906663;29;20052;-77
2022/08/25 00:39:26;;;;;;;10.90;7.40;;;20.80;99.90;;;;;;4923533;29;20070;-77
2022/08/25 00:41:55;;;;;;;8.10;6.68;;;20.80;99.90;;;;;;4923205;29;20064;-77
2022/08/25 00:44:22;;;;;;;9.85;7.78;;;20.80;99.90;;;;;;4923359;29;20048;-77
2022/08/25 00:46:51;;;;;;;8.45;6.95;;;20.80;99.90;;;;;;4938284;29;20044;-78
2022/08/25 00:49:23;;;;;;;7.90;6.82;;;20.80;99.90;;;;;;4923355;29;20051;-77
2022/08/25 00:51:59;;;;;;;8.10;7.03;;;20.80;99.90;;;;;;4923437;29;20127;-77
2022/08/25 00:54:36;;;;;;;8.98;7.32;;;20.70;99.90;;;;;;4923459;29;20092;-77
2022/08/25 00:57:04;;;;;;;9.30;6.43;;;20.70;99.90;;;;;;4923673;29;20489;-77
2022/08/25 00:59:30;;;;;;;8.95;6.75;;;20.70;99.90;;;;;;4923269;29;20392;-77
2022/08/25 01:01:57;;;;;;;10.32;6.70;;;20.70;99.90;;;;;;4923344;29;20102;-77
2022/08/25 01:04:24;;;;;;;10.18;6.05;;;20.80;99.90;;;;;;4923278;29;20135;-77
2022/08/25 01:06:50;;;;;;;8.95;6.60;;;20.80;99.90;;;;;;4923329;29;20052;-77
2022/08/25 01:09:17;;;;;;;10.23;6.35;;;20.80;99.90;;;;;;4923226;29;20048;-78
2022/08/25 01:11:45;;;;;;;16.70;6.10;;;20.80;99.90;;;;;;4937905;29;20491;-78
2022/08/25 01:14:14;;;;;;;12.13;6.63;;;20.80;99.90;;;;;;4923035;29;20076;-78
2022/08/25 01:16:42;;;;;;;8.32;6.60;;;20.80;99.90;;;;;;4923109;29;20048;-77
2022/08/25 01:19:10;;;;;;;8.20;6.82;;;20.80;99.90;;;;;;4923216;29;20054;-77
2022/08/25 01:21:39;;;;;;;7.28;6.20;;;20.80;99.90;;;;;;4921324;29;20373;-78
2022/08/25 01:24:05;;;;;;;12.38;6.47;;;20.80;99.90;;;;;;4934747;29;20057;-77
2022/08/25 01:26:33;;;;;;;8.73;6.35;;;20.70;99.90;;;;;;4903523;29;20135;-78
2022/08/25 01:29:21;;;;;;;8.32;5.93;;;20.70;99.90;;;;;;4903092;29;20051;-77
2022/08/25 01:31:49;;;;;;;10.85;5.93;;;20.70;99.90;;;;;;4919830;29;20457;-77
2022/08/25 01:34:16;;;;;;;12.18;6.30;;;20.70;99.90;;;;;;4934751;29;20052;-77
2022/08/25 01:36:43;;;;;;;7.65;6.20;;;20.70;99.90;;;;;;4919917;29;20040;-77
2022/08/25 01:39:09;;;;;;;9.32;6.45;;;20.70;99.90;;;;;;4919854;29;20476;-77
2022/08/25 01:41:49;;;;;;;7.68;6.28;;;20.60;99.90;;;;;;4902726;29;20060;-77
2022/08/25 01:44:16;;;;;;;9.68;6.25;;;20.60;99.90;;;;;;4920115;29;20052;-77
2022/08/25 01:46:42;;;;;;;8.75;6.05;;;20.60;99.90;;;;;;4919596;29;20400;-77
2022/08/25 01:49:07;;;;;;;8.93;6.38;;;20.60;99.90;;;;;;4919726;29;20549;-77
2022/08/25 01:51:41;;;;;;;7.28;6.55;;;20.60;99.90;;;;;;4919538;29;20040;-77
2022/08/25 01:54:07;;;;;;;9.05;6.43;;;20.60;99.90;;;;;;4919722;29;20044;-78
2022/08/25 01:56:33;;;;;;;8.32;6.20;;;20.60;99.90;;;;;;4919399;29;20040;-78
2022/08/25 01:58:58;;;;;;;7.97;6.50;;;20.60;99.90;;;;;;4919446;29;20056;-78
2022/08/25 02:01:25;;;;;;;8.98;6.50;;;20.50;99.90;;;;;;4902472;29;20350;-77
2022/08/25 02:03:53;;;;;;;9.23;5.60;;;20.50;99.90;;;;;;4902740;29;20135;-77
2022/08/25 02:06:22;;;;;;;12.90;6.20;;;20.50;99.90;;;;;;4919454;29;20044;-77
2022/08/25 02:08:53;;;;;;;10.55;5.95;;;20.50;99.90;;;;;;4902439;29;20504;-77
2022/08/25 02:11:20;;;;;;;8.32;6.32;;;20.50;99.90;;;;;;4919166;29;20393;-78
2022/08/25 02:13:46;;;;;;;8.68;5.97;;;20.50;99.90;;;;;;4919207;29;20040;-77
2022/08/25 02:16:19;;;;;;;8.93;5.72;;;20.40;99.90;;;;;;4933774;29;20051;-77
2022/08/25 02:18:46;;;;;;;7.18;5.47;;;20.40;99.90;;;;;;4902463;29;20048;-78
2022/08/25 02:21:13;;;;;;;12.15;6.70;;;20.50;99.90;;;;;;4919145;29;20432;-78
2022/08/25 02:23:40;;;;;;;8.77;5.35;;;20.40;99.90;;;;;;4901972;29;20487;-78
2022/08/25 02:26:07;;;;;;;7.88;5.70;;;20.40;99.90;;;;;;4919071;29;20043;-78
2022/08/25 02:28:32;;;;;;;7.93;5.35;;;20.40;99.90;;;;;;4918883;29;20087;-78
2022/08/25 02:30:58;;;;;;;9.95;5.57;;;20.40;99.90;;;;;;4918949;29;20076;-78
2022/08/25 02:33:25;;;;;;;7.90;5.18;;;20.30;99.90;;;;;;4901222;29;20479;-78
2022/08/25 02:35:50;;;;;;;7.28;5.20;;;20.30;99.90;;;;;;4918527;29;20410;-78
2022/08/25 02:38:17;;;;;;;7.72;5.20;;;20.30;99.90;;;;;;4901724;29;20472;-77
2022/08/25 02:40:43;;;;;;;7.97;5.43;;;20.30;99.90;;;;;;4918684;29;20044;-78
2022/08/25 02:43:08;;;;;;;7.90;5.07;;;20.30;99.90;;;;;;4918827;29;20048;-78
2022/08/25 02:45:35;;;;;;;7.47;5.00;;;20.30;99.90;;;;;;4901729;29;20079;-78
2022/08/25 02:48:02;;;;;;;6.28;5.07;;;20.20;99.90;;;;;;4901898;29;20048;-79
2022/08/25 02:50:28;;;;;;;10.93;5.22;;;20.20;99.90;;;;;;4918633;29;20048;-77
2022/08/25 02:52:53;;;;;;;8.82;5.68;;;20.20;99.90;;;;;;4918712;29;20449;-77
2022/08/25 02:55:19;;;;;;;15.57;5.43;;;20.20;99.90;;;;;;4918584;29;20059;-77
2022/08/25 02:57:46;;;;;;;8.00;5.35;;;20.20;99.90;;;;;;4918524;29;20036;-78
2022/08/25 03:00:14;;;;;;;10.68;5.20;;;20.10;99.90;;;;;;4918493;29;20066;-78
2022/08/25 03:02:40;;;;;;;10.00;5.43;;;20.20;99.90;;;;;;4918444;29;20040;-77
2022/08/25 03:05:08;;;;;;;11.77;5.18;;;20.10;99.90;;;;;;4901661;29;20048;-78
2022/08/25 03:07:35;;;;;;;9.25;4.85;;;20.10;99.90;;;;;;4918097;29;20055;-79
2022/08/25 03:10:11;;;;;;;7.13;5.00;;;20.10;99.90;;;;;;4901463;29;20108;-78
2022/08/25 03:12:36;;;;;;;6.82;5.47;;;20.10;99.90;;;;;;4918545;29;20055;-78
2022/08/25 03:15:03;;;;;;;8.63;5.00;;;20.10;99.90;;;;;;4918159;29;20048;-78
2022/08/25 03:17:29;;;;;;;6.35;4.93;;;20.10;99.90;;;;;;4901188;29;20059;-78
2022/08/25 03:19:55;;;;;;;7.18;5.05;;;20.10;99.90;;;;;;4901007;29;20048;-77
2022/08/25 03:22:20;;;;;;;6.88;4.93;;;20.00;99.90;;;;;;4901037;29;20047;-77
2022/08/25 03:24:46;;;;;;;10.95;5.18;;;20.00;99.90;;;;;;4918034;29;20052;-78
2022/08/25 03:27:12;;;;;;;9.13;5.07;;;20.00;99.90;;;;;;4918051;29;20047;-78
2022/08/25 03:29:40;;;;;;;6.97;4.47;;;20.00;99.90;;;;;;4917921;29;20075;-77
2022/08/25 03:32:06;;;;;;;7.05;4.50;;;20.00;99.90;;;;;;4917945;29;20055;-78
2022/08/25 03:34:32;;;;;;;7.53;4.57;;;20.00;99.90;;;;;;4917753;29;20488;-77
2022/08/25 03:36:58;;;;;;;7.28;4.63;;;19.90;99.90;;;;;;4901500;29;20059;-77
2022/08/25 03:39:25;;;;;;;10.38;5.22;;;19.90;99.90;;;;;;4918030;29;20048;-77
2022/08/25 03:41:52;;;;;;;9.88;5.00;;;19.90;99.90;;;;;;4917504;29;20070;-77
2022/08/25 03:44:19;;;;;;;9.27;5.10;;;19.90;99.90;;;;;;4917610;29;20079;-78
2022/08/25 03:46:48;;;;;;;8.55;4.45;;;19.90;99.90;;;;;;4917557;29;20055;-78
2022/08/25 03:49:19;;;;;;;11.25;5.18;;;19.90;99.90;;;;;;4932126;29;20113;-78
2022/08/25 03:51:49;;;;;;;6.03;4.93;;;19.80;99.90;;;;;;4917771;29;20036;-77
2022/08/25 03:54:18;;;;;;;7.70;5.25;;;19.80;99.90;;;;;;4917668;29;20051;-77
2022/08/25 03:56:44;;;;;;;6.68;4.45;;;19.80;99.90;;;;;;4900638;29;20048;-78
2022/08/25 03:59:10;;;;;;;6.22;4.70;;;19.80;99.90;;;;;;4900609;29;20051;-78
2022/08/25 04:01:41;;;;;;;6.63;4.53;;;19.80;99.90;;;;;;4917375;29;20373;-77
2022/08/25 04:04:09;;;;;;;6.15;4.53;;;19.80;99.90;;;;;;4917394;29;20510;-78
2022/08/25 04:06:34;;;;;;;7.88;4.35;;;19.80;99.90;;;;;;4917409;29;20054;-78
2022/08/25 04:09:00;;;;;;;7.45;4.75;;;19.70;99.90;;;;;;4917420;29;20060;-78
2022/08/25 04:11:27;;;;;;;8.05;4.85;;;19.70;99.90;;;;;;4917506;29;20048;-78
2022/08/25 04:13:55;;;;;;;8.15;4.90;;;19.70;99.90;;;;;;4917470;29;20075;-78
2022/08/25 04:16:28;;;;;;;7.35;4.90;;;19.70;99.90;;;;;;4917473;29;20051;-77
2022/08/25 04:18:54;;;;;;;8.15;4.80;;;19.60;99.90;;;;;;4917622;29;20048;-78
2022/08/25 04:21:21;;;;;;;6.03;4.70;;;19.60;99.90;;;;;;4917118;29;20563;-78
2022/08/25 04:23:48;;;;;;;10.40;4.97;;;19.60;99.90;;;;;;4917129;29;20492;-78
2022/08/25 04:26:15;;;;;;;8.50;4.90;;;19.60;99.90;;;;;;4931326;29;20048;-77
2022/08/25 04:28:41;;;;;;;6.75;4.78;;;19.60;99.90;;;;;;4930479;29;20135;-78
2022/08/25 04:31:08;;;;;;;7.88;4.68;;;19.50;99.90;;;;;;4916466;29;20132;-78
2022/08/25 04:33:37;;;;;;;7.35;4.95;;;19.50;99.90;;;;;;4931832;29;20056;-78
2022/08/25 04:36:05;;;;;;;9.05;4.82;;;19.50;99.90;;;;;;4931521;29;20126;-78
2022/08/25 04:38:31;;;;;;;7.95;4.47;;;19.50;99.90;;;;;;4916988;29;20044;-78
2022/08/25 04:40:59;;;;;;;7.57;4.80;;;19.50;99.90;;;;;;4916630;29;20389;-78
2022/08/25 04:43:24;;;;;;;10.27;5.00;;;19.50;99.90;;;;;;4931558;29;20059;-78
2022/08/25 04:45:51;;;;;;;10.18;5.05;;;19.50;99.90;;;;;;4916958;29;20048;-78
2022/08/25 04:48:17;;;;;;;7.78;4.85;;;19.40;99.90;;;;;;4931629;29;20044;-78
2022/08/25 04:50:43;;;;;;;7.82;4.93;;;19.50;99.90;;;;;;4931513;29;20403;-78
2022/08/25 04:53:09;;;;;;;9.75;5.05;;;19.50;99.90;;;;;;4916963;29;20037;-77
2022/08/25 04:55:46;;;;;;;6.68;4.65;;;19.50;99.90;;;;;;4931622;29;20063;-78
2022/08/25 04:58:13;;;;;;;9.70;5.07;;;19.50;99.90;;;;;;4919600;29;20055;-77
2022/08/25 05:00:39;;;;;;;8.48;4.53;;;19.40;99.90;;;;;;4920569;29;20127;-78
2022/08/25 05:03:05;;;;;;;8.73;4.80;;;19.50;99.90;;;;;;4920446;29;20059;-78
2022/08/25 05:05:34;;;;;;;7.95;4.80;;;19.50;99.90;;;;;;4920268;29;20111;-78
2022/08/25 05:08:00;;;;;;;7.65;4.97;;;19.50;99.90;;;;;;4920404;29;20048;-78
2022/08/25 05:10:25;;;;;;;7.85;4.95;;;19.50;99.90;;;;;;4903548;29;20503;-78
2022/08/25 05:12:51;;;;;;;8.38;5.10;;;19.40;99.90;;;;;;4903238;29;20373;-78
2022/08/25 05:18:02;;;;;;;9.68;5.13;;;19.50;99.90;;;;;;4903058;29;20062;-78
2022/08/25 05:20:29;;;;;;;6.00;4.45;;;19.60;99.90;;;;;;4903097;29;20068;-78
2022/08/25 05:22:56;;;;;;;9.82;5.07;;;19.50;99.90;;;;;;4920206;29;20047;-78
2022/08/25 05:25:22;;;;;;;7.30;5.38;;;19.50;99.90;;;;;;4920063;29;20127;-78
2022/08/25 05:27:48;;;;;;;7.95;4.97;;;19.60;99.90;;;;;;4919920;29;20072;-78
2022/08/25 05:30:13;;;;;;;8.55;5.63;;;19.60;99.90;;;;;;4934768;29;20155;-78
2022/08/25 05:32:39;;;;;;;7.25;4.80;;;19.60;99.90;;;;;;4919912;29;20094;-78
2022/08/25 05:35:06;;;;;;;9.10;4.75;;;19.70;99.90;;;;;;4919983;29;20048;-78
2022/08/25 05:37:33;;;;;;;7.05;5.30;;;19.70;99.90;;;;;;4919712;29;20096;-79
2022/08/25 05:39:59;;;;;;;7.80;5.00;;;19.70;99.90;;;;;;4919637;29;20087;-78
2022/08/25 05:42:27;;;;;;;8.57;5.13;;;19.70;99.90;;;;;;4934303;29;20056;-79
2022/08/25 05:44:53;;;;;;;11.82;5.25;;;19.80;99.90;;;;;;4919876;29;20067;-79
2022/08/25 05:47:20;;;;;;;10.50;5.45;;;19.80;99.90;;;;;;4919770;29;20051;-78
2022/08/25 05:49:45;;;;;;;6.85;5.10;;;19.90;99.90;;;;;;4919380;29;20052;-78
2022/08/25 05:52:11;;;;;;;8.15;4.95;;;19.90;99.90;;;;;;4902846;29;20044;-79
2022/08/25 05:54:38;;;;;;;8.30;5.18;;;20.00;99.90;;;;;;4934136;29;20127;-79
2022/08/25 05:57:05;;;;;;;8.40;4.72;;;20.10;99.90;;;;;;4919626;29;20067;-78
2022/08/25 05:59:31;;;;;;;9.57;4.93;;;20.10;99.90;;;;;;4919336;29;20547;-78
2022/08/25 06:04:41;;;;;;;10.77;4.60;;;20.30;99.90;;;;;;4919223;29;20380;-77
2022/08/25 06:07:07;;;;;;;6.47;4.10;;;20.50;99.90;;;;;;4902481;29;20546;-79
2022/08/25 06:09:33;;;;;;;9.65;5.05;;;20.60;99.90;;;;;;4933523;29;20036;-78
2022/08/25 06:11:58;;;;;;;9.32;4.60;;;20.70;99.90;;;;;;4912586;29;20078;-77
2022/08/25 06:14:24;;;;;;;9.27;4.68;;;20.80;99.90;;;;;;4900432;29;20476;-77
2022/08/25 06:16:50;;;;;;;7.78;4.90;;;20.90;99.90;;;;;;4899933;29;20143;-78
2022/08/25 06:19:17;;;;;;;10.07;4.82;;;21.10;99.90;;;;;;4900212;29;20049;-78
2022/08/25 06:21:43;;;;;;;6.47;4.20;;;21.20;99.90;;;;;;4883076;29;20076;-77
2022/08/25 06:24:09;;;;;;;10.00;4.68;;;21.30;99.90;;;;;;4899993;29;20081;-78
2022/08/25 06:26:36;;;;;;;10.05;4.90;;;21.40;99.90;;;;;;4882940;29;20553;-78
2022/08/25 06:29:02;;;;;;;8.68;4.70;;;21.50;99.90;;;;;;4883085;29;20100;-77
2022/08/25 06:31:28;;;;;;;8.38;4.63;;;21.60;99.90;;;;;;4899662;29;20576;-78
2022/08/25 06:33:54;;;;;;;8.63;4.78;;;21.70;99.90;;;;;;4899995;29;20127;-78
2022/08/25 06:36:20;;;;;;;7.65;4.90;;;21.80;99.90;;;;;;4899718;29;20048;-78
2022/08/25 06:38:46;;;;;;;6.72;4.75;;;21.90;99.90;;;;;;4883022;29;20056;-78
2022/08/25 06:41:12;;;;;;;10.32;5.35;;;22.00;99.90;;;;;;4899451;29;20056;-78
2022/08/25 06:43:40;;;;;;;8.32;4.90;;;22.00;99.90;;;;;;4882886;29;20052;-77
2022/08/25 06:46:14;;;;;;;9.88;4.88;;;22.20;99.90;;;;;;4899407;29;20041;-77
2022/08/25 06:48:40;;;;;;;10.38;4.30;;;22.30;99.90;;;;;;4882454;29;20091;-77
2022/08/25 06:51:08;;;;;;;12.60;5.22;;;22.40;99.90;;;;;;4899626;29;20072;-77
2022/08/25 06:53:34;;;;;;;7.72;4.45;;;22.50;99.90;;;;;;4899540;29;20048;-77
2022/08/25 06:56:00;;;;;;;9.35;5.25;;;22.50;99.90;;;;;;4899438;29;20037;-78
2022/08/25 06:58:26;;;;;;;8.57;4.32;;;22.60;99.90;;;;;;4882365;29;20453;-77
2022/08/25 07:00:52;;;;;;;8.63;4.20;;;22.70;99.90;;;;;;4899169;29;20043;-77
2022/08/25 07:03:18;;;;;;;9.15;5.28;;;22.70;99.90;;;;;;4882587;29;20045;-77
2022/08/25 07:05:54;;;;;;;12.43;5.35;;;22.90;99.90;;;;;;4899198;29;20075;-77
2022/08/25 07:08:19;;;;;;;9.85;4.90;;;22.90;99.90;;;;;;4906005;29;20082;-77
2022/08/25 07:10:46;;;;;;;8.70;4.88;;;23.00;99.90;;;;;;4937100;29;20079;-77
2022/08/25 07:13:13;;;;;;;10.68;5.10;;;23.00;99.90;;;;;;4936725;29;20485;-77
2022/08/25 07:15:40;;;;;;;7.03;4.85;;;23.10;99.90;;;;;;4919994;29;20056;-77
2022/08/25 07:18:06;;;;;;;13.35;5.50;;;23.20;99.90;;;;;;4936640;29;20628;-78
2022/08/25 07:20:35;;;;;;;9.88;5.18;;;23.30;99.90;;;;;;4919199;29;20049;-77
2022/08/25 07:23:01;;;;;;;8.77;5.40;;;23.40;99.90;;;;;;4936611;29;20058;-78
2022/08/25 07:25:26;;;;;;;7.28;4.55;;;23.50;99.90;;;;;;4934106;29;20043;-77
2022/08/25 07:27:53;;;;;;;7.75;5.30;;;23.60;99.90;;;;;;4891109;29;20049;-77
2022/08/25 07:30:19;;;;;;;6.00;4.50;;;23.70;99.90;;;;;;4921824;29;20052;-78
2022/08/25 07:32:44;;;;;;;7.47;4.95;;;23.80;99.90;;;;;;4898860;29;20048;-77
2022/08/25 07:35:14;;;;;;;6.50;4.45;;;23.90;99.90;;;;;;4898515;29;20408;-77
2022/08/25 07:37:41;;;;;;;9.30;5.13;;;24.00;99.90;;;;;;4915716;29;20051;-77
2022/08/25 07:40:09;;;;;;;10.88;5.20;;;24.10;99.90;;;;;;4932042;29;20039;-77
2022/08/25 07:42:36;;;;;;;9.35;6.22;;;24.20;99.90;;;;;;4919210;29;20397;-77
2022/08/25 07:45:04;;;;;;;11.35;5.60;;;24.30;99.90;;;;;;4936543;29;20048;-77
2022/08/25 07:47:30;;;;;;;9.35;5.65;;;24.30;99.90;;;;;;4913741;29;20062;-78
2022/08/25 07:49:56;;;;;;;9.68;5.43;;;24.50;99.90;;;;;;4913321;29;20495;-78
2022/08/25 07:52:22;;;;;;;9.07;4.93;;;24.50;99.90;;;;;;4936281;29;20057;-77
2022/08/25 07:54:47;;;;;;;7.45;5.15;;;24.70;99.90;;;;;;4936358;29;20135;-77
2022/08/25 07:57:13;;;;;;;7.38;4.93;;;24.80;99.90;;;;;;4936369;29;20135;-77
2022/08/25 07:59:40;;;;;;;8.75;5.45;;;24.90;99.90;;;;;;4936109;29;20054;-77
2022/08/25 08:02:13;;;;;;;10.57;5.15;;;25.00;99.90;;;;;;4936246;29;20075;-77
2022/08/25 08:04:39;;;;;;;9.07;4.63;;;25.00;99.90;;;;;;4936316;29;20058;-77
2022/08/25 08:07:05;;;;;;;7.53;5.13;;;25.20;99.90;;;;;;4932637;29;20052;-77
2022/08/25 08:09:31;;;;;;;7.82;4.53;;;25.30;99.90;;;;;;4927573;29;20047;-77
2022/08/25 08:11:57;;;;;;;8.43;4.68;;;25.40;99.90;;;;;;4935970;29;20205;-77
2022/08/25 08:14:23;;;;;;;10.77;5.20;;;25.50;99.90;;;;;;4936128;29;20491;-78
2022/08/25 08:16:48;;;;;;;12.25;4.72;;;25.70;99.90;;;;;;4915466;29;20047;-77
2022/08/25 08:19:15;;;;;;;9.75;5.97;;;25.80;99.90;;;;;;4927527;29;20126;-78
2022/08/25 08:21:41;;;;;;;7.93;5.22;;;25.80;99.90;;;;;;4918781;29;20091;-77
2022/08/25 08:24:07;;;;;;;7.65;4.85;;;25.90;99.90;;;;;;4936120;29;20052;-77
2022/08/25 08:26:33;;;;;;;7.93;4.90;;;26.10;99.90;;;;;;4919059;29;20040;-78
2022/08/25 08:29:00;;;;;;;10.70;5.20;;;26.10;99.90;;;;;;4918754;29;20134;-78
2022/08/25 08:31:27;;;;;;;8.20;5.55;;;26.20;99.90;;;;;;4937311;29;20055;-78
2022/08/25 08:33:54;;;;;;;9.48;4.82;;;26.30;99.90;;;;;;4922612;29;20048;-78
2022/08/25 08:36:20;;;;;;;10.65;4.82;;;26.40;99.90;;;;;;4939055;29;20059;-78
2022/08/25 08:38:46;;;;;;;6.57;4.93;;;26.50;99.90;;;;;;4931252;29;20055;-78
2022/08/25 08:44:11;;;;;;;11.70;4.68;;;26.60;99.90;;;;;;4920619;29;20140;-77
2022/08/25 08:46:56;;;;;;;10.45;5.15;;;26.70;99.90;;;;;;4921448;29;20048;-79
2022/08/25 08:49:49;;;;;;;7.43;4.50;;;26.80;99.90;;;;;;4908443;29;20055;-78
2022/08/25 08:52:18;;;;;;;8.30;4.45;;;26.80;99.90;;;;;;4903400;29;20083;-78
2022/08/25 08:54:48;;;;;;;6.85;4.60;;;27.00;99.90;;;;;;4920616;29;20099;-78
2022/08/25 08:57:21;;;;;;;6.57;4.10;;;27.10;99.90;;;;;;4903292;29;20086;-78
2022/08/25 08:59:51;;;;;;;9.38;4.80;;;27.20;99.90;;;;;;4920489;29;20051;-78
2022/08/25 09:02:32;;;;;;;7.88;5.07;;;27.20;99.90;;;;;;4920260;29;20048;-77
2022/08/25 09:05:02;;;;;;;5.93;4.20;;;27.40;99.90;;;;;;4920484;29;20035;-78
2022/08/25 09:07:40;;;;;;;8.48;4.13;;;27.30;99.90;;;;;;4908298;29;20047;-78
2022/08/25 09:10:06;;;;;;;7.40;4.10;;;27.40;99.90;;;;;;4932392;29;20094;-78
2022/08/25 09:12:53;;;;;;;6.97;3.90;;;27.60;99.90;;;;;;4921934;29;20043;-78
2022/08/25 09:16:53;;;;;;;5.78;3.97;;;27.70;99.90;;;;;;4939174;29;20126;-78
2022/08/25 09:18:38;;;;;;;8.30;3.70;;;27.80;99.90;;;;;;4929138;29;20084;-78
2022/08/25 09:21:17;;;;;;;8.40;3.72;;;28.00;99.90;;;;;;4884243;29;20053;-84
2022/08/25 09:24:14;;;;;;;7.13;3.78;;;28.00;99.90;;;;;;4901275;29;20052;-82
2022/08/25 09:27:06;;;;;;;7.65;4.10;;;28.10;99.90;;;;;;4900901;29;20096;-85
2022/08/25 09:30:01;;;;;;;6.93;3.75;;;28.20;99.90;;;;;;4877722;29;20060;-83
2022/08/25 09:32:32;;;;;;;5.72;3.42;;;28.30;99.90;;;;;;4901001;29;20048;-84
2022/08/25 09:35:01;;;;;;;7.03;3.97;;;28.40;99.90;;;;;;4884074;29;20462;-84
2022/08/25 09:37:26;;;;;;;5.63;3.72;;;28.40;99.90;;;;;;4883970;29;20536;-84
2022/08/25 09:39:52;;;;;;;6.82;3.60;;;28.50;99.90;;;;;;4912226;29;20131;-83
2022/08/25 09:42:19;;;;;;;7.38;3.58;;;28.60;99.90;;;;;;4920976;29;20059;-83
2022/08/25 09:44:47;;;;;;;6.50;3.38;;;28.60;99.90;;;;;;4915638;29;20480;-85
2022/08/25 09:47:22;;;;;;;5.28;2.95;;;28.70;99.60;;;;;;4902029;29;20100;-84
2022/08/25 09:50:00;;;;;;;8.13;3.05;;;28.70;99.90;;;;;;4902546;29;20086;-83
2022/08/25 09:52:36;;;;;;;8.60;3.00;;;28.80;99.30;;;;;;4920560;29;20542;-78
2022/08/25 09:55:04;;;;;;;7.07;3.08;;;28.90;98.90;;;;;;4919545;29;20048;-86
2022/08/25 09:57:46;;;;;;;6.20;3.10;;;28.90;99.80;;;;;;4902264;29;20182;-79
2022/08/25 10:00:29;;;;;;;3.72;2.70;;;28.90;98.40;;;;;;4924995;29;20054;-79
2022/08/25 10:03:06;;;;;;;5.30;3.25;;;28.90;98.70;;;;;;4921447;29;20043;-79
2022/08/25 10:05:37;;;;;;;4.97;3.28;;;29.10;98.80;;;;;;4921198;29;20487;-78
2022/08/25 10:08:21;;;;;;;6.15;3.17;;;29.10;99.10;;;;;;4911335;29;20076;-79
2022/08/25 10:10:53;;;;;;;4.53;3.00;;;29.30;99.30;;;;;;4910304;29;20091;-78
2022/08/25 10:13:22;;;;;;;6.78;3.47;;;29.40;98.40;;;;;;4918594;29;20067;-78
2022/08/25 10:16:21;;;;;;;8.10;3.47;;;29.50;97.80;;;;;;4923228;29;20056;-78
2022/08/25 10:19:22;;;;;;;4.65;3.25;;;29.40;97.50;;;;;;4923815;29;20179;-78
2022/08/25 10:22:33;;;;;;;7.72;3.15;;;29.60;98.10;;;;;;4912861;29;20106;-78
2022/08/25 10:24:59;;;;;;;4.60;2.72;;;29.70;97.80;;;;;;4919200;29;20063;-78
2022/08/25 10:27:47;;;;;;;5.63;2.80;;;29.80;96.00;;;;;;4920911;29;20111;-78
2022/08/25 10:30:13;;;;;;;6.93;3.03;;;29.90;97.40;;;;;;4920503;29;20406;-79
2022/08/25 10:33:14;;;;;;;4.93;2.75;;;30.00;96.70;;;;;;4920730;29;20542;-78
2022/08/25 10:35:52;;;;;;;7.97;3.17;;;30.10;95.70;;;;;;4937737;29;20048;-78
2022/08/25 10:38:38;;;;;;;4.20;2.45;;;30.20;96.50;;;;;;4934084;29;20506;-78
2022/08/25 10:41:26;;;;;;;8.18;3.08;;;30.20;94.30;;;;;;4907255;29;20088;-78
2022/08/25 10:47:19;;;;;;;7.72;2.85;;;30.30;95.20;;;;;;4917053;29;20515;-78
2022/08/25 10:49:48;;;;;;;6.38;3.00;;;30.30;95.80;;;;;;4925377;29;20111;-78
2022/08/25 10:52:26;;;;;;;7.28;3.00;;;30.50;95.00;;;;;;4903234;29;20087;-78
2022/08/25 10:55:17;;;;;;;5.40;2.75;;;30.50;94.80;;;;;;4916202;29;20130;-78
2022/08/25 10:57:58;;;;;;;4.95;2.50;;;30.60;94.20;;;;;;4931005;29;20044;-79
2022/08/25 11:00:31;;;;;;;5.73;2.93;;;30.80;95.50;;;;;;4931985;29;20056;-78
2022/08/25 11:03:10;;;;;;;4.95;2.60;;;30.90;94.50;;;;;;4918111;29;20112;-79
2022/08/25 11:05:41;;;;;;;6.55;2.47;;;30.90;94.40;;;;;;4901327;29;20067;-79
2022/08/25 11:08:23;;;;;;;3.92;2.67;;;30.90;93.60;;;;;;4900743;29;20507;-79
2022/08/25 11:10:55;;;;;;;5.85;2.78;;;31.10;92.30;;;;;;4901355;29;20187;-80
2022/08/25 11:13:38;;;;;;;6.25;2.40;;;31.10;92.50;;;;;;4918155;29;20067;-79
2022/08/25 11:16:18;;;;;;;6.45;2.88;;;31.40;94.30;;;;;;4900934;29;20461;-79
2022/08/25 11:18:50;;;;;;;6.28;2.60;;;31.40;92.80;;;;;;4900893;29;20048;-80
2022/08/25 11:21:25;;;;;;;4.93;2.80;;;31.30;91.50;;;;;;4900585;29;20052;-79
2022/08/25 11:24:16;;;;;;;3.85;2.20;;;31.20;92.60;;;;;;4900736;29;20142;-79
2022/08/25 11:26:50;;;;;;;6.22;2.63;;;31.20;91.70;;;;;;4918001;29;20138;-80
2022/08/25 11:29:19;;;;;;;4.88;2.40;;;31.40;91.50;;;;;;4917837;29;20126;-79
2022/08/25 11:31:49;;;;;;;6.63;2.70;;;31.30;92.20;;;;;;4917842;29;20115;-80
2022/08/25 11:34:17;;;;;;;7.50;2.70;;;31.30;92.40;;;;;;4901149;29;20044;-79
2022/08/25 11:36:51;;;;;;;6.97;2.35;;;31.50;91.90;;;;;;4917600;29;20095;-80
2022/08/25 11:39:39;;;;;;;4.40;2.42;;;31.60;90.30;;;;;;4917682;29;20511;-80
2022/08/25 11:42:36;;;;;;;5.72;2.60;;;31.60;91.30;;;;;;4900408;29;20143;-79
2022/08/25 11:45:35;;;;;;;4.55;2.47;;;31.70;91.40;;;;;;4917733;29;20055;-79
2022/08/25 11:48:41;;;;;;;4.65;2.50;;;31.70;90.00;;;;;;4900600;29;20509;-79
2022/08/25 11:51:10;;;;;;;6.90;2.70;;;31.50;90.10;;;;;;4910197;29;20188;-80
2022/08/25 11:53:39;;;;;;;6.38;2.63;;;31.60;90.70;;;;;;4917402;29;20043;-79
2022/08/25 11:56:32;;;;;;;5.18;2.53;;;31.40;89.80;;;;;;4917233;29;20074;-79
2022/08/25 11:58:57;;;;;;;;;;;31.50;90.50;;;;;;4917961;29;20056;-79
2022/08/25 12:01:38;;;;;;;4.53;2.47;;;31.50;90.40;;;;;;4917531;29;19925;-79
2022/08/25 12:04:41;;;;;;;4.95;2.15;;;31.60;90.50;;;;;;4917524;29;20067;-79
2022/08/25 12:07:09;;;;;;;5.10;2.45;;;31.60;89.40;;;;;;4899953;29;20052;-79
2022/08/25 12:09:50;;;;;;;4.65;2.70;;;31.80;87.60;;;;;;4917364;29;20103;-80
2022/08/25 12:12:53;;;;;;;4.13;2.53;;;31.90;89.20;;;;;;4917115;29;20051;-79
2022/08/25 12:15:45;;;;;;;5.68;2.90;;;31.70;86.10;;;;;;4917335;29;20123;-79
2022/08/25 12:18:21;;;;;;;7.10;2.88;;;31.70;87.70;;;;;;4895054;29;20491;-79
2022/08/25 12:20:53;;;;;;;4.43;2.60;;;31.90;87.10;;;;;;4917368;29;20084;-79
2022/08/25 12:24:00;;;;;;;5.47;2.58;;;32.10;86.60;;;;;;4916988;29;20044;-80
2022/08/25 12:26:43;;;;;;;8.43;2.70;;;32.20;88.60;;;;;;4884447;29;20119;-80
2022/08/25 12:29:14;;;;;;;5.95;2.95;;;32.10;88.70;;;;;;4917043;29;20159;-81
2022/08/25 12:32:06;;;;;;;8.00;2.77;;;32.30;86.80;;;;;;4917298;29;20145;-82
2022/08/25 12:35:06;;;;;;;4.63;2.47;;;32.40;86.10;;;;;;4917295;29;20122;-80
2022/08/25 12:37:31;;;;;;;3.00;2.15;;;32.10;87.20;;;;;;4917007;29;20464;-80
2022/08/25 12:40:03;;;;;;;7.88;2.72;;;32.30;86.90;;;;;;4900161;29;20491;-80
2022/08/25 12:42:36;;;;;;;7.68;2.97;;;32.20;86.10;;;;;;4916807;29;20052;-80
2022/08/25 12:45:20;;;;;;;3.72;2.80;;;32.00;86.50;;;;;;4917227;29;20048;-80
2022/08/25 12:47:47;;;;;;;12.65;3.35;;;32.10;86.00;;;;;;4931990;29;20052;-80
2022/08/25 12:50:41;;;;;;;5.10;2.80;;;32.10;87.60;;;;;;4916880;29;20428;-82
2022/08/25 12:53:16;;;;;;;5.72;3.05;;;32.20;87.30;;;;;;4916838;29;20464;-80
2022/08/25 12:55:54;;;;;;;7.38;3.33;;;32.20;87.40;;;;;;4916907;29;20127;-79
2022/08/25 12:58:23;;;;;;;6.45;3.47;;;32.30;87.80;;;;;;4916827;29;20448;-80
2022/08/25 13:01:01;;;;;;;6.53;3.63;;;32.00;86.90;;;;;;4916992;29;20052;-80
2022/08/25 13:03:43;;;;;;;6.43;3.40;;;32.00;88.60;;;;;;4899826;29;20044;-80
2022/08/25 13:06:20;;;;;;;7.63;3.03;;;32.00;88.70;;;;;;4917005;29;20052;-83
2022/08/25 13:09:17;;;;;;;8.00;3.95;;;32.00;86.20;;;;;;4916978;29;20083;-81
2022/08/25 13:11:55;;;;;;;4.95;3.25;;;32.10;87.70;;;;;;4916946;29;20500;-80
2022/08/25 13:14:44;;;;;;;7.55;3.63;;;32.10;87.60;;;;;;4916979;29;20067;-80
2022/08/25 13:17:23;;;;;;;7.63;3.50;;;32.10;86.60;;;;;;4916711;29;20056;-80